Weather at Antwerp International Airport (Deurne)

Public forecast

Using degrees Celsius for public forecast. Weather courtesy of forecast.io.

Current aviation weather report (METAR) for Antwerp International Airport (Deurne)

Retrieved 2020/11/24 00:20 UTC (8 minutes ago):

EBAW 240020Z AUTO 21006KT 5000 // OVC007/// 09/08 Q1026

Aviation forecast (TAF) for Antwerp International Airport (Deurne)

Forecast is more than 12 hours old.

Retrieved 2020-09-24 00:30 UTC (2 months ago):

TAF TAF EBAW 232300Z 2400/2412 25011KT 9999 SCT030